createdAt,value
2023-02-11T00:02:20.516Z,55.13
2023-02-11T00:04:48.075Z,54.67
2023-02-11T00:07:15.687Z,55.32
2023-02-11T00:09:43.286Z,54.83
2023-02-11T00:12:10.892Z,54.36
2023-02-11T00:14:39.884Z,54.50
2023-02-11T00:17:07.602Z,54.90
2023-02-11T00:19:35.202Z,54.37
2023-02-11T00:22:04.870Z,54.32
2023-02-11T00:24:32.569Z,54.04
2023-02-11T00:27:00.273Z,54.01
2023-02-11T00:29:27.969Z,54.20
2023-02-11T00:31:57.544Z,53.92
2023-02-11T00:34:25.434Z,55.03
2023-02-11T00:36:53.681Z,54.30
2023-02-11T00:39:21.240Z,54.53
2023-02-11T00:41:48.894Z,53.70
2023-02-11T00:44:16.538Z,54.89
2023-02-11T00:46:44.255Z,54.52
2023-02-11T00:51:48.128Z,54.45
2023-02-11T00:54:15.712Z,53.82
2023-02-11T00:56:43.705Z,54.21
2023-02-11T00:59:11.338Z,54.27
2023-02-11T01:01:39.840Z,54.78
2023-02-11T01:04:07.489Z,53.80
2023-02-11T01:06:35.213Z,54.77
2023-02-11T01:09:04.467Z,53.83
2023-02-11T01:11:32.254Z,53.96
2023-02-11T01:13:59.884Z,54.00
2023-02-11T01:16:27.651Z,54.71
2023-02-11T01:18:55.230Z,54.59
2023-02-11T01:21:23.049Z,54.00
2023-02-11T01:23:50.625Z,53.62
2023-02-11T01:26:38.640Z,54.06
2023-02-11T01:29:06.238Z,53.84
2023-02-11T01:31:35.238Z,53.84
2023-02-11T01:34:02.979Z,54.50
2023-02-11T01:36:36.643Z,54.31
2023-02-11T01:39:04.268Z,53.94
2023-02-11T01:41:31.986Z,54.13
2023-02-11T01:44:29.345Z,53.82
2023-02-11T01:46:56.961Z,54.11
2023-02-11T01:49:26.666Z,54.03
2023-02-11T01:51:56.354Z,53.73
2023-02-11T01:54:43.052Z,54.40
2023-02-11T01:57:26.037Z,53.83
2023-02-11T02:00:00.076Z,53.08
2023-02-11T02:02:29.421Z,53.64
2023-02-11T02:05:01.030Z,54.05
2023-02-11T02:07:31.553Z,53.83
2023-02-11T02:10:00.735Z,53.57
2023-02-11T02:12:28.317Z,53.86
2023-02-11T02:17:54.719Z,53.92
2023-02-11T02:20:47.409Z,53.96
2023-02-11T02:23:28.242Z,53.01
2023-02-11T02:26:35.297Z,53.10
2023-02-11T02:29:16.093Z,54.05
2023-02-11T02:31:53.663Z,54.00
2023-02-11T02:34:24.803Z,53.69
2023-02-11T02:36:56.362Z,54.00
2023-02-11T02:39:25.709Z,54.30
2023-02-11T02:41:53.435Z,53.79
2023-02-11T02:44:21.397Z,54.20
2023-02-11T02:46:49.121Z,53.92
2023-02-11T02:49:17.377Z,53.87
2023-02-11T02:52:06.720Z,54.93
2023-02-11T02:55:13.271Z,54.46
2023-02-11T02:57:49.839Z,53.90
2023-02-11T03:00:23.397Z,53.98
2023-02-11T03:02:57.008Z,54.38
2023-02-11T03:05:27.749Z,54.96
2023-02-11T03:07:59.534Z,54.12
2023-02-11T03:10:28.343Z,54.54
2023-02-11T03:12:56.130Z,54.51
2023-02-11T03:15:23.906Z,54.35
2023-02-11T03:17:52.935Z,54.50
2023-02-11T03:20:21.255Z,54.74
2023-02-11T03:22:50.712Z,54.76
2023-02-11T03:25:20.361Z,55.35
2023-02-11T03:27:53.649Z,54.33
2023-02-11T03:30:22.652Z,55.34
2023-02-11T03:32:52.299Z,55.63
2023-02-11T03:35:22.113Z,55.22
2023-02-11T03:37:52.386Z,55.41
2023-02-11T03:40:22.354Z,55.08
2023-02-11T03:42:51.754Z,56.15
2023-02-11T03:45:20.998Z,55.92
2023-02-11T03:47:51.910Z,56.46
2023-02-11T03:50:19.523Z,56.29
2023-02-11T03:52:48.336Z,56.97
2023-02-11T03:55:18.369Z,55.77
2023-02-11T03:57:48.532Z,56.32
2023-02-11T04:00:16.717Z,56.10
2023-02-11T04:02:44.529Z,56.73
2023-02-11T04:05:16.092Z,56.35
2023-02-11T04:07:43.957Z,57.16
2023-02-11T04:10:12.402Z,56.68
2023-02-11T04:12:40.309Z,56.10
2023-02-11T04:15:09.893Z,56.83
2023-02-11T04:17:37.603Z,57.88
2023-02-11T04:20:05.961Z,57.89
2023-02-11T04:22:33.540Z,57.51
2023-02-11T04:25:01.304Z,57.75
2023-02-11T04:27:28.924Z,57.19
2023-02-11T04:29:56.878Z,56.61
2023-02-11T04:32:25.848Z,56.96
2023-02-11T04:34:54.781Z,58.21
2023-02-11T04:37:22.405Z,57.17
2023-02-11T04:39:50.097Z,57.29
2023-02-11T04:42:17.662Z,56.91
2023-02-11T04:44:46.339Z,57.32
2023-02-11T04:47:15.320Z,58.24
2023-02-11T04:49:44.409Z,57.93
2023-02-11T04:52:12.014Z,57.58
2023-02-11T04:54:39.897Z,58.16
2023-02-11T04:57:07.609Z,57.84
2023-02-11T04:59:35.314Z,58.38
2023-02-11T05:02:04.133Z,57.58
2023-02-11T05:04:36.997Z,57.50
2023-02-11T05:07:05.944Z,57.88
2023-02-11T05:09:33.698Z,58.00
2023-02-11T05:12:01.254Z,57.97
2023-02-11T05:14:29.911Z,57.32
2023-02-11T05:16:57.585Z,58.20
2023-02-11T05:19:25.176Z,58.05
2023-02-11T05:22:02.100Z,57.90
2023-02-11T05:24:32.170Z,58.23
2023-02-11T05:27:00.077Z,57.72
2023-02-11T05:29:27.772Z,57.76
2023-02-11T05:31:55.571Z,58.16
2023-02-11T05:34:23.147Z,57.95
2023-02-11T05:36:50.988Z,57.80
2023-02-11T05:39:18.566Z,58.14
2023-02-11T05:41:47.831Z,58.04
2023-02-11T05:44:15.615Z,57.89
2023-02-11T05:46:43.494Z,59.25
2023-02-11T05:49:11.179Z,58.90
2023-02-11T05:51:38.865Z,58.18
2023-02-11T05:54:08.113Z,58.82
2023-02-11T05:56:35.843Z,58.51
2023-02-11T05:59:06.355Z,58.47
2023-02-11T06:01:34.018Z,58.69
2023-02-11T06:04:03.680Z,58.95
2023-02-11T06:06:31.407Z,58.94
2023-02-11T06:08:59.119Z,58.95
2023-02-11T06:11:26.970Z,58.46
2023-02-11T06:13:54.536Z,58.42
2023-02-11T06:16:23.986Z,59.18
2023-02-11T06:18:59.452Z,59.63
2023-02-11T06:21:40.026Z,59.76
2023-02-11T06:24:11.450Z,58.76
2023-02-11T06:26:39.164Z,59.30
2023-02-11T06:29:06.737Z,58.25
2023-02-11T06:31:35.879Z,58.87
2023-02-11T06:34:03.589Z,59.28
2023-02-11T06:36:31.228Z,58.65
2023-02-11T06:38:58.884Z,58.69
2023-02-11T06:41:26.532Z,58.56
2023-02-11T06:43:54.246Z,58.92
2023-02-11T06:46:22.485Z,58.79
2023-02-11T06:48:51.406Z,58.87
2023-02-11T06:51:19.282Z,59.35
2023-02-11T06:56:16.622Z,58.91
2023-02-11T06:58:44.242Z,58.88
2023-02-11T07:01:12.700Z,58.88
2023-02-11T07:03:41.381Z,59.30
2023-02-11T07:06:12.842Z,59.76
2023-02-11T07:08:42.407Z,59.60
2023-02-11T07:11:11.137Z,58.16
2023-02-11T07:13:38.711Z,59.26
2023-02-11T07:16:07.680Z,59.89
2023-02-11T07:18:35.437Z,58.74
2023-02-11T07:21:05.478Z,59.24
2023-02-11T07:23:34.568Z,59.67
2023-02-11T07:26:04.184Z,58.61
2023-02-11T07:28:31.905Z,59.30
2023-02-11T07:30:59.753Z,59.45
2023-02-11T07:33:27.367Z,59.99
2023-02-11T07:35:55.019Z,58.97
2023-02-11T07:38:22.651Z,59.54
2023-02-11T07:40:51.698Z,58.65
2023-02-11T07:43:19.305Z,59.88
2023-02-11T07:45:46.878Z,59.16
2023-02-11T07:48:14.848Z,59.62
2023-02-11T07:50:42.484Z,59.31
2023-02-11T07:53:11.699Z,58.79
2023-02-11T07:55:39.349Z,58.63
2023-02-11T07:58:08.450Z,59.64
2023-02-11T08:00:36.488Z,59.66
2023-02-11T08:03:05.295Z,59.59
2023-02-11T08:05:33.673Z,59.79
2023-02-11T08:08:02.459Z,59.56
2023-02-11T08:10:30.136Z,60.53
2023-02-11T08:12:57.695Z,59.23
2023-02-11T08:15:26.752Z,59.92
2023-02-11T08:17:54.365Z,59.82
2023-02-11T08:20:23.079Z,59.31
2023-02-11T08:22:50.718Z,60.47
2023-02-11T08:25:18.584Z,60.09
2023-02-11T08:27:46.147Z,60.09
2023-02-11T08:30:14.986Z,59.70
2023-02-11T08:32:46.308Z,60.36
2023-02-11T08:35:14.159Z,59.35
2023-02-11T08:37:41.744Z,60.24
2023-02-11T08:40:11.324Z,60.32
2023-02-11T08:42:39.682Z,59.35
2023-02-11T08:45:10.371Z,59.56
2023-02-11T08:47:38.081Z,59.23
2023-02-11T08:50:07.822Z,60.03
2023-02-11T08:52:35.489Z,59.59
2023-02-11T08:55:03.078Z,59.11
2023-02-11T08:57:30.901Z,60.18
2023-02-11T08:59:59.550Z,59.41
2023-02-11T09:02:27.277Z,60.31
2023-02-11T09:04:54.867Z,59.89
2023-02-11T09:07:24.074Z,60.28
2023-02-11T09:09:51.677Z,59.34
2023-02-11T09:12:19.310Z,59.41
2023-02-11T09:14:47.133Z,59.71
2023-02-11T09:17:15.039Z,59.69
2023-02-11T09:19:42.681Z,59.92
2023-02-11T09:22:10.351Z,59.88
2023-02-11T09:24:39.297Z,59.80
2023-02-11T09:27:06.871Z,60.03
2023-02-11T09:29:34.457Z,59.87
2023-02-11T09:32:02.189Z,59.90
2023-02-11T09:34:29.931Z,59.32
2023-02-11T09:36:57.513Z,60.23
2023-02-11T09:39:26.659Z,59.32
2023-02-11T09:42:25.841Z,60.24
2023-02-11T09:44:53.835Z,59.15
2023-02-11T09:47:26.955Z,60.21
2023-02-11T09:50:00.045Z,59.77
2023-02-11T09:52:33.633Z,59.39
2023-02-11T09:55:01.896Z,60.21
2023-02-11T09:57:33.365Z,59.41
2023-02-11T10:00:01.345Z,60.12
2023-02-11T10:02:33.352Z,59.55
2023-02-11T10:05:13.691Z,59.24
2023-02-11T10:07:43.894Z,59.46
2023-02-11T10:10:14.542Z,60.02
2023-02-11T10:13:01.598Z,59.96
2023-02-11T10:15:34.082Z,59.82
2023-02-11T10:18:16.999Z,59.47
2023-02-11T10:20:49.950Z,59.24
2023-02-11T10:23:20.102Z,59.93
2023-02-11T10:25:50.635Z,59.79
2023-02-11T10:28:20.402Z,59.34
2023-02-11T10:30:52.918Z,59.94
2023-02-11T10:33:24.019Z,59.50
2023-02-11T10:35:51.561Z,59.25
2023-02-11T10:38:20.207Z,59.75
2023-02-11T10:40:47.851Z,60.11
2023-02-11T10:43:16.734Z,59.14
2023-02-11T10:45:46.629Z,59.14
2023-02-11T10:48:40.846Z,59.52
2023-02-11T10:51:09.716Z,59.88
2023-02-11T10:53:37.400Z,59.48
2023-02-11T10:56:05.386Z,59.42
2023-02-11T10:58:44.057Z,59.98
2023-02-11T11:01:23.952Z,60.01
2023-02-11T11:03:52.406Z,59.95
2023-02-11T11:06:30.106Z,59.80
2023-02-11T11:08:57.742Z,59.99
2023-02-11T11:11:26.314Z,59.30
2023-02-11T11:13:59.083Z,59.86
2023-02-11T11:16:29.094Z,59.70
2023-02-11T11:19:16.352Z,59.51
2023-02-11T11:21:44.611Z,59.23
2023-02-11T11:24:17.543Z,59.98
2023-02-11T11:26:46.149Z,59.21
2023-02-11T11:29:16.029Z,59.27
2023-02-11T11:31:50.368Z,58.97
2023-02-11T11:34:23.295Z,59.47
2023-02-11T11:36:50.903Z,59.45
2023-02-11T11:39:21.530Z,59.97
2023-02-11T11:41:56.508Z,59.84
2023-02-11T11:44:32.186Z,59.24
2023-02-11T11:47:27.612Z,59.14
2023-02-11T11:50:11.886Z,59.94
2023-02-11T11:52:42.596Z,59.44
2023-02-11T11:55:14.385Z,60.08
2023-02-11T11:57:42.169Z,59.26
2023-02-11T12:00:16.437Z,59.53
2023-02-11T12:03:22.722Z,59.29
2023-02-11T12:06:00.046Z,60.33
2023-02-11T12:08:33.569Z,59.57
2023-02-11T12:11:06.946Z,60.31
2023-02-11T12:13:42.053Z,60.02
2023-02-11T12:16:15.793Z,60.28
2023-02-11T12:19:07.571Z,59.50
2023-02-11T12:21:41.308Z,59.78
2023-02-11T12:24:18.065Z,59.67
2023-02-11T12:26:47.328Z,59.80
2023-02-11T12:29:20.257Z,59.52
2023-02-11T12:31:57.411Z,59.75
2023-02-11T12:34:36.619Z,59.11
2023-02-11T12:37:10.203Z,59.49
2023-02-11T12:39:42.180Z,59.79
2023-02-11T12:42:55.028Z,59.21
2023-02-11T12:45:28.636Z,59.42
2023-02-11T12:48:03.350Z,59.08
2023-02-11T12:50:34.171Z,59.67
2023-02-11T12:53:26.224Z,59.50
2023-02-11T12:55:57.751Z,59.28
2023-02-11T12:58:35.475Z,59.47
2023-02-11T13:01:09.345Z,59.67
2023-02-11T13:03:38.748Z,59.42
2023-02-11T13:06:07.770Z,59.37
2023-02-11T13:08:38.265Z,59.69
2023-02-11T13:11:14.246Z,59.13
2023-02-11T13:13:48.193Z,59.25
2023-02-11T13:16:20.635Z,59.33
2023-02-11T13:18:51.392Z,59.37
2023-02-11T13:21:44.201Z,59.37
2023-02-11T13:24:20.351Z,59.22
2023-02-11T13:26:51.197Z,58.92
2023-02-11T13:29:25.063Z,59.20
2023-02-11T13:31:56.249Z,58.97
2023-02-11T13:34:27.877Z,59.16
2023-02-11T13:36:56.114Z,59.13
2023-02-11T13:39:25.156Z,59.11
2023-02-11T13:41:52.989Z,59.06
2023-02-11T13:44:26.700Z,59.07
2023-02-11T13:46:59.603Z,58.77
2023-02-11T13:49:31.189Z,58.85
2023-02-11T13:51:59.293Z,58.90
2023-02-11T13:54:30.932Z,58.77
2023-02-11T13:57:23.740Z,58.49
2023-02-11T13:59:51.469Z,58.56
2023-02-11T14:02:42.435Z,58.62
2023-02-11T14:05:45.591Z,58.72
2023-02-11T14:08:39.515Z,58.70
2023-02-11T14:11:12.341Z,58.69
2023-02-11T14:14:15.736Z,58.90
2023-02-11T14:17:22.050Z,58.50
2023-02-11T14:19:50.356Z,58.34
2023-02-11T14:22:19.413Z,58.51
2023-02-11T14:24:52.427Z,58.68
2023-02-11T14:27:26.198Z,58.95
2023-02-11T14:30:08.676Z,58.42
2023-02-11T14:32:41.519Z,58.79
2023-02-11T14:35:11.151Z,58.51
2023-02-11T14:37:50.336Z,58.54
2023-02-11T14:40:24.160Z,58.68
2023-02-11T14:42:53.861Z,58.57
2023-02-11T14:45:24.795Z,58.58
2023-02-11T14:47:54.615Z,58.67
2023-02-11T14:50:25.105Z,58.49
2023-02-11T14:52:52.831Z,58.42
2023-02-11T14:55:30.088Z,58.70
2023-02-11T14:58:12.485Z,58.52
2023-02-11T15:00:53.646Z,58.61
2023-02-11T15:03:35.835Z,58.34
2023-02-11T15:06:05.962Z,58.53
2023-02-11T15:08:34.273Z,58.50
2023-02-11T15:11:02.694Z,58.52
2023-02-11T15:13:32.044Z,58.61
2023-02-11T15:16:02.002Z,58.54
2023-02-11T15:18:34.361Z,58.58
2023-02-11T15:21:01.956Z,58.76
2023-02-11T15:23:30.866Z,58.34
2023-02-11T15:26:03.032Z,58.53
2023-02-11T15:28:32.920Z,58.67
2023-02-11T15:31:01.816Z,58.46
2023-02-11T15:33:31.928Z,58.54
2023-02-11T15:36:00.253Z,58.34
2023-02-11T15:38:27.972Z,58.62
2023-02-11T15:40:57.098Z,58.67
2023-02-11T15:43:24.750Z,58.69
2023-02-11T15:45:59.128Z,58.84
2023-02-11T15:48:31.525Z,58.63
2023-02-11T15:51:00.920Z,58.41
2023-02-11T15:53:29.649Z,58.30
2023-02-11T15:56:02.298Z,58.17
2023-02-11T15:58:29.946Z,58.51
2023-02-11T16:00:59.996Z,58.16
2023-02-11T16:03:32.271Z,58.11
2023-02-11T16:06:18.574Z,58.57
2023-02-11T16:08:57.735Z,58.56
2023-02-11T16:11:26.863Z,58.38
2023-02-11T16:13:54.498Z,58.25
2023-02-11T16:16:24.323Z,58.35
2023-02-11T16:19:03.134Z,58.30
2023-02-11T16:21:35.520Z,58.14
2023-02-11T16:24:03.794Z,58.22
2023-02-11T16:26:33.288Z,58.24
2023-02-11T16:29:11.454Z,58.19
2023-02-11T16:31:42.081Z,58.26
2023-02-11T16:34:14.424Z,58.38
2023-02-11T16:36:42.058Z,58.22
2023-02-11T16:39:09.752Z,58.28
2023-02-11T16:41:37.355Z,58.43
2023-02-11T16:44:05.086Z,58.18
2023-02-11T16:46:33.047Z,58.39
2023-02-11T16:49:09.728Z,58.24
2023-02-11T16:51:40.055Z,58.56
2023-02-11T16:54:07.657Z,58.57
2023-02-11T16:56:38.525Z,58.34
2023-02-11T16:59:06.143Z,58.45
2023-02-11T17:01:33.855Z,58.50
2023-02-11T17:04:02.823Z,58.46
2023-02-11T17:06:30.689Z,58.78
2023-02-11T17:08:58.266Z,58.59
2023-02-11T17:11:29.381Z,58.70
2023-02-11T17:13:57.047Z,58.52
2023-02-11T17:16:27.630Z,58.87
2023-02-11T17:19:00.240Z,58.81
2023-02-11T17:21:31.383Z,58.94
2023-02-11T17:23:58.972Z,58.88
2023-02-11T17:26:26.650Z,58.57
2023-02-11T17:28:54.220Z,58.96
2023-02-11T17:31:27.715Z,58.99
2023-02-11T17:33:58.278Z,58.85
2023-02-11T17:36:25.845Z,58.75
2023-02-11T17:38:55.536Z,58.92
2023-02-11T17:41:23.434Z,58.74
2023-02-11T17:43:51.925Z,59.03
2023-02-11T17:46:19.581Z,58.84
2023-02-11T17:48:47.275Z,58.87
2023-02-11T17:51:24.356Z,58.82
2023-02-11T17:53:52.101Z,58.89
2023-02-11T17:59:03.396Z,58.72
2023-02-11T18:01:31.428Z,58.97
2023-02-11T18:03:59.067Z,58.97
2023-02-11T18:06:28.948Z,58.96
2023-02-11T18:08:58.020Z,58.79
2023-02-11T18:11:25.957Z,58.83
2023-02-11T18:13:54.489Z,59.21
2023-02-11T18:16:23.781Z,59.11
2023-02-11T18:18:51.510Z,59.10
2023-02-11T18:21:20.622Z,59.24
2023-02-11T18:23:48.248Z,58.91
2023-02-11T18:26:16.647Z,59.34
2023-02-11T18:28:45.988Z,59.26
2023-02-11T18:31:14.475Z,59.09
2023-02-11T18:33:43.602Z,59.13
2023-02-11T18:36:15.300Z,58.96
2023-02-11T18:38:44.960Z,59.39
2023-02-11T18:41:13.073Z,58.93
2023-02-11T18:43:40.897Z,59.48
2023-02-11T18:46:11.533Z,59.05
2023-02-11T18:48:39.614Z,59.14
2023-02-11T18:51:10.965Z,59.77
2023-02-11T18:53:38.747Z,59.17
2023-02-11T18:56:13.100Z,59.54
2023-02-11T18:58:42.018Z,59.29
2023-02-11T19:01:13.831Z,59.18
2023-02-11T19:03:44.928Z,59.22
2023-02-11T19:06:19.767Z,59.48
2023-02-11T19:08:47.592Z,59.57
2023-02-11T19:11:17.184Z,59.05
2023-02-11T19:13:44.813Z,59.21
2023-02-11T19:16:14.763Z,59.21
2023-02-11T19:18:43.564Z,58.97
2023-02-11T19:21:11.788Z,59.31
2023-02-11T19:23:44.799Z,59.12
2023-02-11T19:26:12.733Z,59.24
2023-02-11T19:28:40.469Z,59.58
2023-02-11T19:31:09.153Z,59.42
2023-02-11T19:33:36.870Z,59.13
2023-02-11T19:36:06.662Z,58.97
2023-02-11T19:38:37.004Z,59.17
2023-02-11T19:41:08.800Z,59.07
2023-02-11T19:43:36.591Z,59.02
2023-02-11T19:46:04.318Z,58.93
2023-02-11T19:48:40.772Z,59.20
2023-02-11T19:51:10.858Z,58.97
2023-02-11T19:53:40.965Z,58.93
2023-02-11T19:56:10.493Z,59.24
2023-02-11T19:58:39.499Z,59.22
2023-02-11T20:01:08.334Z,59.12
2023-02-11T20:03:36.426Z,59.05
2023-02-11T20:06:06.080Z,59.33
2023-02-11T20:08:34.145Z,59.08
2023-02-11T20:11:07.348Z,59.06
2023-02-11T20:13:37.566Z,59.01
2023-02-11T20:16:07.121Z,59.08
2023-02-11T20:18:34.925Z,59.09
2023-02-11T20:21:07.517Z,59.20
2023-02-11T20:23:35.287Z,58.62
2023-02-11T20:26:07.199Z,59.10
2023-02-11T20:28:37.427Z,59.15
2023-02-11T20:31:06.008Z,58.75
2023-02-11T20:33:34.934Z,59.04
2023-02-11T20:36:04.075Z,58.82
2023-02-11T20:38:32.207Z,58.87
2023-02-11T20:41:03.956Z,58.64
2023-02-11T20:43:31.913Z,58.95
2023-02-11T20:46:04.282Z,59.13
2023-02-11T20:48:32.194Z,58.99
2023-02-11T20:51:06.484Z,59.15
2023-02-11T20:53:35.333Z,59.03
2023-02-11T20:56:03.788Z,59.19
2023-02-11T20:58:31.774Z,59.18
2023-02-11T21:01:08.463Z,58.98
2023-02-11T21:03:36.257Z,59.06
2023-02-11T21:06:04.711Z,58.91
2023-02-11T21:08:33.208Z,59.07
2023-02-11T21:11:01.852Z,59.02
2023-02-11T21:13:29.568Z,59.05
2023-02-11T21:15:58.511Z,59.17
2023-02-11T21:18:27.526Z,59.00
2023-02-11T21:21:00.839Z,59.28
2023-02-11T21:23:28.981Z,59.01
2023-02-11T21:25:57.255Z,59.14
2023-02-11T21:28:27.527Z,59.07
2023-02-11T21:31:18.266Z,59.33
2023-02-11T21:33:47.324Z,59.11
2023-02-11T21:36:15.047Z,59.14
2023-02-11T21:38:42.685Z,59.37
2023-02-11T21:41:10.368Z,59.64
2023-02-11T21:43:41.017Z,59.63
2023-02-11T21:46:09.838Z,58.83
2023-02-11T21:48:37.608Z,59.27
2023-02-11T21:51:07.894Z,59.18
2023-02-11T21:53:35.517Z,59.02
2023-02-11T21:56:07.322Z,59.17
2023-02-11T21:58:37.032Z,59.07
2023-02-11T22:01:13.779Z,59.10
2023-02-11T22:03:41.785Z,59.21
2023-02-11T22:06:12.425Z,59.27
2023-02-11T22:08:40.021Z,59.07
2023-02-11T22:11:08.621Z,59.27
2023-02-11T22:13:36.764Z,59.18
2023-02-11T22:16:05.565Z,59.36
2023-02-11T22:18:33.345Z,59.28
2023-02-11T22:21:01.529Z,59.32
2023-02-11T22:23:30.597Z,59.38
2023-02-11T22:26:00.347Z,59.14
2023-02-11T22:28:27.990Z,59.13
2023-02-11T22:30:55.914Z,59.04
2023-02-11T22:33:28.598Z,59.36
2023-02-11T22:35:59.917Z,59.31
2023-02-11T22:38:30.556Z,59.32
2023-02-11T22:40:59.700Z,59.29
2023-02-11T22:43:28.152Z,59.35
2023-02-11T22:45:56.994Z,59.59
2023-02-11T22:48:27.936Z,59.13
2023-02-11T22:51:04.680Z,59.21
2023-02-11T22:53:32.287Z,59.08
2023-02-11T22:56:15.976Z,58.88
2023-02-11T22:58:44.124Z,59.22
2023-02-11T23:01:12.574Z,59.23
2023-02-11T23:03:40.383Z,58.92
2023-02-11T23:06:08.283Z,59.22
2023-02-11T23:08:36.143Z,59.35
2023-02-11T23:11:05.528Z,59.19
2023-02-11T23:13:37.884Z,59.50
2023-02-11T23:16:06.372Z,59.19
2023-02-11T23:18:34.359Z,59.15
2023-02-11T23:21:06.832Z,59.20
2023-02-11T23:23:34.503Z,59.43
2023-02-11T23:26:02.302Z,59.12
2023-02-11T23:28:30.086Z,59.20
2023-02-11T23:30:59.094Z,59.31
2023-02-11T23:33:26.758Z,59.32
2023-02-11T23:35:54.658Z,59.15
2023-02-11T23:38:22.497Z,59.14
2023-02-11T23:40:50.352Z,59.17
2023-02-11T23:43:18.098Z,59.13
2023-02-11T23:45:45.791Z,59.04
2023-02-11T23:48:14.843Z,59.06
2023-02-11T23:50:44.043Z,59.07
2023-02-11T23:53:11.611Z,59.05
2023-02-11T23:55:41.137Z,58.99
2023-02-11T23:58:08.828Z,58.97
